sensor_id;sensor_type;location;lat;lon;timestamp;P1;durP1;ratioP1;P2;durP2;ratioP2
4434;SDS011;46552;52.150;8.428;2023-08-24T00:01:11;12.93;;;4.90;;
4434;SDS011;46552;52.150;8.428;2023-08-24T00:03:40;9.30;;;5.83;;
4434;SDS011;46552;52.150;8.428;2023-08-24T00:06:07;9.13;;;4.40;;
4434;SDS011;46552;52.150;8.428;2023-08-24T00:08:36;8.57;;;5.30;;
4434;SDS011;46552;52.150;8.428;2023-08-24T00:11:04;10.13;;;5.20;;
4434;SDS011;46552;52.150;8.428;2023-08-24T00:13:32;7.57;;;4.90;;
4434;SDS011;46552;52.150;8.428;2023-08-24T00:15:59;8.33;;;4.90;;
4434;SDS011;46552;52.150;8.428;2023-08-24T00:18:28;11.93;;;5.10;;
4434;SDS011;46552;52.150;8.428;2023-08-24T00:20:55;15.20;;;6.20;;
4434;SDS011;46552;52.150;8.428;2023-08-24T00:23:22;10.43;;;4.97;;
4434;SDS011;46552;52.150;8.428;2023-08-24T00:25:49;12.20;;;4.50;;
4434;SDS011;46552;52.150;8.428;2023-08-24T00:28:16;12.20;;;5.17;;
4434;SDS011;46552;52.150;8.428;2023-08-24T00:30:43;10.47;;;5.20;;
4434;SDS011;46552;52.150;8.428;2023-08-24T00:33:12;12.07;;;4.50;;
4434;SDS011;46552;52.150;8.428;2023-08-24T00:35:41;12.67;;;5.70;;
4434;SDS011;46552;52.150;8.428;2023-08-24T00:38:08;9.13;;;5.50;;
4434;SDS011;46552;52.150;8.428;2023-08-24T00:40:35;8.70;;;5.70;;
4434;SDS011;46552;52.150;8.428;2023-08-24T00:43:04;8.73;;;4.97;;
4434;SDS011;46552;52.150;8.428;2023-08-24T00:45:32;7.80;;;4.60;;
4434;SDS011;46552;52.150;8.428;2023-08-24T00:47:59;10.07;;;6.57;;
4434;SDS011;46552;52.150;8.428;2023-08-24T00:50:28;15.20;;;5.73;;
4434;SDS011;46552;52.150;8.428;2023-08-24T00:52:57;9.90;;;6.13;;
4434;SDS011;46552;52.150;8.428;2023-08-24T00:55:25;10.87;;;5.50;;
4434;SDS011;46552;52.150;8.428;2023-08-24T00:57:53;11.30;;;5.97;;
4434;SDS011;46552;52.150;8.428;2023-08-24T01:00:21;13.10;;;5.93;;
4434;SDS011;46552;52.150;8.428;2023-08-24T01:02:49;12.57;;;5.70;;
4434;SDS011;46552;52.150;8.428;2023-08-24T01:05:17;7.77;;;5.77;;
4434;SDS011;46552;52.150;8.428;2023-08-24T01:07:46;9.40;;;5.70;;
4434;SDS011;46552;52.150;8.428;2023-08-24T01:10:15;16.30;;;5.90;;
4434;SDS011;46552;52.150;8.428;2023-08-24T01:12:46;13.27;;;7.37;;
4434;SDS011;46552;52.150;8.428;2023-08-24T01:15:20;12.23;;;6.83;;
4434;SDS011;46552;52.150;8.428;2023-08-24T01:17:56;13.60;;;6.73;;
4434;SDS011;46552;52.150;8.428;2023-08-24T01:20:29;8.47;;;5.30;;
4434;SDS011;46552;52.150;8.428;2023-08-24T01:23:04;9.87;;;5.83;;
4434;SDS011;46552;52.150;8.428;2023-08-24T01:25:46;11.03;;;5.70;;
4434;SDS011;46552;52.150;8.428;2023-08-24T01:28:20;11.93;;;5.40;;
4434;SDS011;46552;52.150;8.428;2023-08-24T01:30:49;14.63;;;6.10;;
4434;SDS011;46552;52.150;8.428;2023-08-24T01:33:16;11.83;;;5.63;;
4434;SDS011;46552;52.150;8.428;2023-08-24T01:35:43;12.87;;;6.53;;
4434;SDS011;46552;52.150;8.428;2023-08-24T01:38:11;13.03;;;5.60;;
4434;SDS011;46552;52.150;8.428;2023-08-24T01:40:43;13.33;;;5.87;;
4434;SDS011;46552;52.150;8.428;2023-08-24T01:43:15;12.13;;;6.13;;
4434;SDS011;46552;52.150;8.428;2023-08-24T01:45:47;11.80;;;7.03;;
4434;SDS011;46552;52.150;8.428;2023-08-24T01:48:16;8.80;;;6.30;;
4434;SDS011;46552;52.150;8.428;2023-08-24T01:50:43;14.83;;;5.70;;
4434;SDS011;46552;52.150;8.428;2023-08-24T01:53:11;9.00;;;5.53;;
4434;SDS011;46552;52.150;8.428;2023-08-24T01:55:40;8.03;;;6.20;;
4434;SDS011;46552;52.150;8.428;2023-08-24T01:58:08;10.13;;;5.73;;
4434;SDS011;46552;52.150;8.428;2023-08-24T02:00:35;9.10;;;6.50;;
4434;SDS011;46552;52.150;8.428;2023-08-24T02:03:04;8.07;;;5.50;;
4434;SDS011;46552;52.150;8.428;2023-08-24T02:05:31;11.83;;;6.50;;
4434;SDS011;46552;52.150;8.428;2023-08-24T02:07:58;8.40;;;5.60;;
4434;SDS011;46552;52.150;8.428;2023-08-24T02:10:26;13.27;;;7.27;;
4434;SDS011;46552;52.150;8.428;2023-08-24T02:12:54;14.57;;;7.27;;
4434;SDS011;46552;52.150;8.428;2023-08-24T02:15:21;13.33;;;6.43;;
4434;SDS011;46552;52.150;8.428;2023-08-24T02:17:49;13.30;;;6.33;;
4434;SDS011;46552;52.150;8.428;2023-08-24T02:20:18;11.97;;;6.53;;
4434;SDS011;46552;52.150;8.428;2023-08-24T02:22:45;10.63;;;5.80;;
4434;SDS011;46552;52.150;8.428;2023-08-24T02:25:13;7.97;;;5.10;;
4434;SDS011;46552;52.150;8.428;2023-08-24T02:27:41;10.80;;;6.20;;
4434;SDS011;46552;52.150;8.428;2023-08-24T02:30:09;15.20;;;5.20;;
4434;SDS011;46552;52.150;8.428;2023-08-24T02:32:37;12.30;;;6.27;;
4434;SDS011;46552;52.150;8.428;2023-08-24T02:35:05;8.27;;;5.53;;
4434;SDS011;46552;52.150;8.428;2023-08-24T02:37:35;11.70;;;6.10;;
4434;SDS011;46552;52.150;8.428;2023-08-24T02:40:04;10.40;;;7.10;;
4434;SDS011;46552;52.150;8.428;2023-08-24T02:42:32;15.17;;;6.70;;
4434;SDS011;46552;52.150;8.428;2023-08-24T02:44:59;10.43;;;6.30;;
4434;SDS011;46552;52.150;8.428;2023-08-24T02:47:27;14.00;;;7.30;;
4434;SDS011;46552;52.150;8.428;2023-08-24T02:49:54;11.90;;;7.40;;
4434;SDS011;46552;52.150;8.428;2023-08-24T02:52:21;14.27;;;6.50;;
4434;SDS011;46552;52.150;8.428;2023-08-24T02:54:50;15.80;;;8.13;;
4434;SDS011;46552;52.150;8.428;2023-08-24T02:57:18;13.87;;;6.73;;
4434;SDS011;46552;52.150;8.428;2023-08-24T02:59:47;18.50;;;8.00;;
4434;SDS011;46552;52.150;8.428;2023-08-24T03:02:14;10.40;;;6.70;;
4434;SDS011;46552;52.150;8.428;2023-08-24T03:04:43;12.33;;;7.50;;
4434;SDS011;46552;52.150;8.428;2023-08-24T03:07:10;15.60;;;8.30;;
4434;SDS011;46552;52.150;8.428;2023-08-24T03:09:37;9.90;;;6.73;;
4434;SDS011;46552;52.150;8.428;2023-08-24T03:12:07;16.53;;;7.40;;
4434;SDS011;46552;52.150;8.428;2023-08-24T03:14:34;9.67;;;6.10;;
4434;SDS011;46552;52.150;8.428;2023-08-24T03:17:02;9.00;;;5.93;;
4434;SDS011;46552;52.150;8.428;2023-08-24T03:19:30;14.27;;;7.37;;
4434;SDS011;46552;52.150;8.428;2023-08-24T03:21:58;12.70;;;7.30;;
4434;SDS011;46552;52.150;8.428;2023-08-24T03:24:25;11.67;;;6.70;;
4434;SDS011;46552;52.150;8.428;2023-08-24T03:26:52;17.13;;;8.57;;
4434;SDS011;46552;52.150;8.428;2023-08-24T03:29:21;17.77;;;8.00;;
4434;SDS011;46552;52.150;8.428;2023-08-24T03:31:50;11.67;;;7.70;;
4434;SDS011;46552;52.150;8.428;2023-08-24T03:34:18;12.60;;;7.00;;
4434;SDS011;46552;52.150;8.428;2023-08-24T03:36:45;13.47;;;7.30;;
4434;SDS011;46552;52.150;8.428;2023-08-24T03:39:14;10.40;;;7.00;;
4434;SDS011;46552;52.150;8.428;2023-08-24T03:41:41;16.77;;;7.10;;
4434;SDS011;46552;52.150;8.428;2023-08-24T03:44:10;13.37;;;7.90;;
4434;SDS011;46552;52.150;8.428;2023-08-24T03:46:38;13.30;;;7.00;;
4434;SDS011;46552;52.150;8.428;2023-08-24T03:49:06;11.10;;;6.10;;
4434;SDS011;46552;52.150;8.428;2023-08-24T03:51:33;10.30;;;6.13;;
4434;SDS011;46552;52.150;8.428;2023-08-24T03:54:01;10.43;;;6.23;;
4434;SDS011;46552;52.150;8.428;2023-08-24T03:56:30;12.40;;;6.33;;
4434;SDS011;46552;52.150;8.428;2023-08-24T03:58:57;17.33;;;7.40;;
4434;SDS011;46552;52.150;8.428;2023-08-24T04:01:24;15.20;;;6.10;;
4434;SDS011;46552;52.150;8.428;2023-08-24T04:03:53;12.20;;;7.43;;
4434;SDS011;46552;52.150;8.428;2023-08-24T04:06:21;13.53;;;7.60;;
4434;SDS011;46552;52.150;8.428;2023-08-24T04:08:49;12.60;;;7.40;;
4434;SDS011;46552;52.150;8.428;2023-08-24T04:11:17;15.07;;;7.53;;
4434;SDS011;46552;52.150;8.428;2023-08-24T04:13:44;14.30;;;8.13;;
4434;SDS011;46552;52.150;8.428;2023-08-24T04:16:11;13.93;;;7.50;;
4434;SDS011;46552;52.150;8.428;2023-08-24T04:18:39;14.00;;;8.00;;
4434;SDS011;46552;52.150;8.428;2023-08-24T04:21:08;10.60;;;8.17;;
4434;SDS011;46552;52.150;8.428;2023-08-24T04:23:36;13.77;;;6.80;;
4434;SDS011;46552;52.150;8.428;2023-08-24T04:26:03;11.10;;;7.70;;
4434;SDS011;46552;52.150;8.428;2023-08-24T04:28:31;14.47;;;8.10;;
4434;SDS011;46552;52.150;8.428;2023-08-24T04:30:59;17.27;;;8.80;;
4434;SDS011;46552;52.150;8.428;2023-08-24T04:33:26;12.80;;;9.07;;
4434;SDS011;46552;52.150;8.428;2023-08-24T04:35:53;15.10;;;9.73;;
4434;SDS011;46552;52.150;8.428;2023-08-24T04:38:22;17.43;;;9.80;;
4434;SDS011;46552;52.150;8.428;2023-08-24T04:40:49;18.20;;;9.97;;
4434;SDS011;46552;52.150;8.428;2023-08-24T04:43:17;14.43;;;10.10;;
4434;SDS011;46552;52.150;8.428;2023-08-24T04:45:46;20.87;;;9.40;;
4434;SDS011;46552;52.150;8.428;2023-08-24T04:48:14;17.43;;;8.90;;
4434;SDS011;46552;52.150;8.428;2023-08-24T04:50:41;15.90;;;9.37;;
4434;SDS011;46552;52.150;8.428;2023-08-24T04:53:10;17.27;;;9.00;;
4434;SDS011;46552;52.150;8.428;2023-08-24T04:55:40;18.33;;;8.47;;
4434;SDS011;46552;52.150;8.428;2023-08-24T04:58:08;19.00;;;9.80;;
4434;SDS011;46552;52.150;8.428;2023-08-24T05:00:37;22.50;;;10.03;;
4434;SDS011;46552;52.150;8.428;2023-08-24T05:03:04;25.70;;;9.20;;
4434;SDS011;46552;52.150;8.428;2023-08-24T05:05:34;18.87;;;9.40;;
4434;SDS011;46552;52.150;8.428;2023-08-24T05:08:02;17.30;;;8.90;;
4434;SDS011;46552;52.150;8.428;2023-08-24T05:10:31;20.20;;;11.20;;
4434;SDS011;46552;52.150;8.428;2023-08-24T05:13:00;14.13;;;8.80;;
4434;SDS011;46552;52.150;8.428;2023-08-24T05:15:29;14.37;;;8.60;;
4434;SDS011;46552;52.150;8.428;2023-08-24T05:17:56;12.03;;;8.97;;
4434;SDS011;46552;52.150;8.428;2023-08-24T05:20:24;19.60;;;8.17;;
4434;SDS011;46552;52.150;8.428;2023-08-24T05:22:51;12.40;;;7.90;;
4434;SDS011;46552;52.150;8.428;2023-08-24T05:25:20;19.77;;;9.07;;
4434;SDS011;46552;52.150;8.428;2023-08-24T05:27:48;18.60;;;10.90;;
4434;SDS011;46552;52.150;8.428;2023-08-24T05:30:17;23.70;;;11.83;;
4434;SDS011;46552;52.150;8.428;2023-08-24T05:32:44;17.37;;;13.20;;
4434;SDS011;46552;52.150;8.428;2023-08-24T05:35:11;18.17;;;13.17;;
4434;SDS011;46552;52.150;8.428;2023-08-24T05:37:38;19.20;;;13.30;;
4434;SDS011;46552;52.150;8.428;2023-08-24T05:40:06;23.00;;;12.47;;
4434;SDS011;46552;52.150;8.428;2023-08-24T05:42:35;18.93;;;13.20;;
4434;SDS011;46552;52.150;8.428;2023-08-24T05:45:03;22.97;;;12.60;;
4434;SDS011;46552;52.150;8.428;2023-08-24T05:47:32;21.40;;;12.97;;
4434;SDS011;46552;52.150;8.428;2023-08-24T05:49:59;20.67;;;10.77;;
4434;SDS011;46552;52.150;8.428;2023-08-24T05:52:27;18.70;;;10.10;;
4434;SDS011;46552;52.150;8.428;2023-08-24T05:54:56;24.37;;;10.63;;
4434;SDS011;46552;52.150;8.428;2023-08-24T05:57:23;17.97;;;10.97;;
4434;SDS011;46552;52.150;8.428;2023-08-24T05:59:50;16.27;;;9.50;;
4434;SDS011;46552;52.150;8.428;2023-08-24T06:02:18;15.73;;;10.40;;
4434;SDS011;46552;52.150;8.428;2023-08-24T06:04:47;22.03;;;11.13;;
4434;SDS011;46552;52.150;8.428;2023-08-24T06:07:15;15.20;;;11.20;;
4434;SDS011;46552;52.150;8.428;2023-08-24T06:09:43;16.93;;;11.80;;
4434;SDS011;46552;52.150;8.428;2023-08-24T06:12:10;23.57;;;13.37;;
4434;SDS011;46552;52.150;8.428;2023-08-24T06:14:38;18.37;;;13.70;;
4434;SDS011;46552;52.150;8.428;2023-08-24T06:17:06;23.43;;;15.33;;
4434;SDS011;46552;52.150;8.428;2023-08-24T06:19:34;19.27;;;14.77;;
4434;SDS011;46552;52.150;8.428;2023-08-24T06:22:02;21.40;;;16.60;;
4434;SDS011;46552;52.150;8.428;2023-08-24T06:24:30;24.40;;;17.80;;
4434;SDS011;46552;52.150;8.428;2023-08-24T06:26:58;23.03;;;17.10;;
4434;SDS011;46552;52.150;8.428;2023-08-24T06:29:27;23.20;;;16.20;;
4434;SDS011;46552;52.150;8.428;2023-08-24T06:31:55;27.50;;;17.60;;
4434;SDS011;46552;52.150;8.428;2023-08-24T06:34:22;21.30;;;17.07;;
4434;SDS011;46552;52.150;8.428;2023-08-24T06:36:50;22.90;;;16.57;;
4434;SDS011;46552;52.150;8.428;2023-08-24T06:39:20;23.40;;;17.40;;
4434;SDS011;46552;52.150;8.428;2023-08-24T06:41:50;22.33;;;15.57;;
4434;SDS011;46552;52.150;8.428;2023-08-24T06:44:17;27.53;;;18.47;;
4434;SDS011;46552;52.150;8.428;2023-08-24T06:46:44;24.57;;;17.47;;
4434;SDS011;46552;52.150;8.428;2023-08-24T06:49:13;21.47;;;16.83;;
4434;SDS011;46552;52.150;8.428;2023-08-24T06:51:40;21.90;;;17.10;;
4434;SDS011;46552;52.150;8.428;2023-08-24T06:54:07;25.43;;;19.20;;
4434;SDS011;46552;52.150;8.428;2023-08-24T06:56:36;26.50;;;19.33;;
4434;SDS011;46552;52.150;8.428;2023-08-24T06:59:03;24.60;;;18.87;;
4434;SDS011;46552;52.150;8.428;2023-08-24T07:01:30;26.00;;;17.37;;
4434;SDS011;46552;52.150;8.428;2023-08-24T07:03:58;22.43;;;16.40;;
4434;SDS011;46552;52.150;8.428;2023-08-24T07:06:25;24.90;;;18.37;;
4434;SDS011;46552;52.150;8.428;2023-08-24T07:08:53;23.50;;;17.80;;
4434;SDS011;46552;52.150;8.428;2023-08-24T07:11:21;24.67;;;18.03;;
4434;SDS011;46552;52.150;8.428;2023-08-24T07:13:50;19.67;;;17.57;;
4434;SDS011;46552;52.150;8.428;2023-08-24T07:16:18;20.30;;;15.20;;
4434;SDS011;46552;52.150;8.428;2023-08-24T07:18:46;25.30;;;16.13;;
4434;SDS011;46552;52.150;8.428;2023-08-24T07:21:13;22.30;;;18.70;;
4434;SDS011;46552;52.150;8.428;2023-08-24T07:23:42;22.40;;;16.40;;
4434;SDS011;46552;52.150;8.428;2023-08-24T07:26:09;25.73;;;17.30;;
4434;SDS011;46552;52.150;8.428;2023-08-24T07:28:37;25.60;;;15.93;;
4434;SDS011;46552;52.150;8.428;2023-08-24T07:31:10;24.23;;;16.83;;
4434;SDS011;46552;52.150;8.428;2023-08-24T07:33:38;22.40;;;16.47;;
4434;SDS011;46552;52.150;8.428;2023-08-24T07:36:05;22.33;;;17.97;;
4434;SDS011;46552;52.150;8.428;2023-08-24T07:38:33;20.37;;;17.00;;
4434;SDS011;46552;52.150;8.428;2023-08-24T07:41:01;26.80;;;17.53;;
4434;SDS011;46552;52.150;8.428;2023-08-24T07:43:29;21.07;;;18.27;;
4434;SDS011;46552;52.150;8.428;2023-08-24T07:45:56;25.00;;;18.33;;
4434;SDS011;46552;52.150;8.428;2023-08-24T07:48:25;23.50;;;19.00;;
4434;SDS011;46552;52.150;8.428;2023-08-24T07:50:54;24.60;;;18.47;;
4434;SDS011;46552;52.150;8.428;2023-08-24T07:53:21;23.83;;;20.07;;
4434;SDS011;46552;52.150;8.428;2023-08-24T07:55:49;36.33;;;24.13;;
4434;SDS011;46552;52.150;8.428;2023-08-24T07:58:16;27.37;;;20.93;;
4434;SDS011;46552;52.150;8.428;2023-08-24T08:00:43;22.60;;;17.00;;
4434;SDS011;46552;52.150;8.428;2023-08-24T08:03:13;33.17;;;20.73;;
4434;SDS011;46552;52.150;8.428;2023-08-24T08:05:42;19.00;;;14.73;;
4434;SDS011;46552;52.150;8.428;2023-08-24T08:08:10;25.27;;;22.57;;
4434;SDS011;46552;52.150;8.428;2023-08-24T08:10:38;30.33;;;21.50;;
4434;SDS011;46552;52.150;8.428;2023-08-24T08:13:06;29.17;;;23.13;;
4434;SDS011;46552;52.150;8.428;2023-08-24T08:15:35;30.87;;;21.10;;
4434;SDS011;46552;52.150;8.428;2023-08-24T08:18:04;24.43;;;21.20;;
4434;SDS011;46552;52.150;8.428;2023-08-24T08:20:31;24.80;;;20.67;;
4434;SDS011;46552;52.150;8.428;2023-08-24T08:23:00;32.70;;;23.53;;
4434;SDS011;46552;52.150;8.428;2023-08-24T08:25:28;41.70;;;24.80;;
4434;SDS011;46552;52.150;8.428;2023-08-24T08:27:55;36.77;;;22.17;;
4434;SDS011;46552;52.150;8.428;2023-08-24T08:30:22;35.33;;;25.47;;
4434;SDS011;46552;52.150;8.428;2023-08-24T08:32:49;37.43;;;21.93;;
4434;SDS011;46552;52.150;8.428;2023-08-24T08:35:17;27.43;;;20.20;;
4434;SDS011;46552;52.150;8.428;2023-08-24T08:37:44;24.27;;;20.30;;
4434;SDS011;46552;52.150;8.428;2023-08-24T08:40:16;19.57;;;17.40;;
4434;SDS011;46552;52.150;8.428;2023-08-24T08:42:44;21.83;;;17.97;;
4434;SDS011;46552;52.150;8.428;2023-08-24T08:45:11;23.83;;;19.50;;
4434;SDS011;46552;52.150;8.428;2023-08-24T08:47:39;20.63;;;18.43;;
4434;SDS011;46552;52.150;8.428;2023-08-24T08:50:07;24.63;;;20.00;;
4434;SDS011;46552;52.150;8.428;2023-08-24T08:52:36;24.60;;;19.17;;
4434;SDS011;46552;52.150;8.428;2023-08-24T08:55:04;24.33;;;19.50;;
4434;SDS011;46552;52.150;8.428;2023-08-24T08:57:35;25.87;;;17.27;;
4434;SDS011;46552;52.150;8.428;2023-08-24T09:00:05;23.97;;;19.67;;
4434;SDS011;46552;52.150;8.428;2023-08-24T09:02:35;25.70;;;18.97;;
4434;SDS011;46552;52.150;8.428;2023-08-24T09:05:03;20.27;;;16.70;;
4434;SDS011;46552;52.150;8.428;2023-08-24T09:07:32;24.77;;;17.70;;
4434;SDS011;46552;52.150;8.428;2023-08-24T09:10:00;28.87;;;15.77;;
4434;SDS011;46552;52.150;8.428;2023-08-24T09:12:30;28.63;;;16.87;;
4434;SDS011;46552;52.150;8.428;2023-08-24T09:15:00;22.97;;;15.87;;
4434;SDS011;46552;52.150;8.428;2023-08-24T09:17:31;25.37;;;16.20;;
4434;SDS011;46552;52.150;8.428;2023-08-24T09:19:59;19.30;;;14.50;;
4434;SDS011;46552;52.150;8.428;2023-08-24T09:22:27;24.50;;;14.37;;
4434;SDS011;46552;52.150;8.428;2023-08-24T09:24:54;23.30;;;16.27;;
4434;SDS011;46552;52.150;8.428;2023-08-24T09:27:21;18.50;;;13.97;;
4434;SDS011;46552;52.150;8.428;2023-08-24T09:29:48;17.30;;;13.07;;
4434;SDS011;46552;52.150;8.428;2023-08-24T09:32:22;16.07;;;11.87;;
4434;SDS011;46552;52.150;8.428;2023-08-24T09:34:50;20.93;;;12.77;;
4434;SDS011;46552;52.150;8.428;2023-08-24T09:37:17;18.00;;;13.50;;
4434;SDS011;46552;52.150;8.428;2023-08-24T09:39:46;14.97;;;13.17;;
4434;SDS011;46552;52.150;8.428;2023-08-24T09:42:14;13.07;;;8.93;;
4434;SDS011;46552;52.150;8.428;2023-08-24T09:44:43;16.47;;;13.10;;
4434;SDS011;46552;52.150;8.428;2023-08-24T09:47:12;24.33;;;12.97;;
4434;SDS011;46552;52.150;8.428;2023-08-24T09:49:41;13.77;;;11.20;;
4434;SDS011;46552;52.150;8.428;2023-08-24T09:52:09;13.10;;;10.77;;
4434;SDS011;46552;52.150;8.428;2023-08-24T09:54:37;20.43;;;11.83;;
4434;SDS011;46552;52.150;8.428;2023-08-24T09:57:05;19.63;;;11.60;;
4434;SDS011;46552;52.150;8.428;2023-08-24T09:59:35;18.97;;;15.40;;
4434;SDS011;46552;52.150;8.428;2023-08-24T10:02:09;19.73;;;12.80;;
4434;SDS011;46552;52.150;8.428;2023-08-24T10:04:45;16.60;;;10.70;;
4434;SDS011;46552;52.150;8.428;2023-08-24T10:07:15;13.10;;;8.70;;
4434;SDS011;46552;52.150;8.428;2023-08-24T10:09:50;13.60;;;9.20;;
4434;SDS011;46552;52.150;8.428;2023-08-24T10:12:24;15.97;;;11.50;;
4434;SDS011;46552;52.150;8.428;2023-08-24T10:14:56;13.07;;;11.23;;
4434;SDS011;46552;52.150;8.428;2023-08-24T10:17:28;15.33;;;11.27;;
4434;SDS011;46552;52.150;8.428;2023-08-24T10:19:58;13.73;;;10.33;;
4434;SDS011;46552;52.150;8.428;2023-08-24T10:22:29;14.00;;;8.60;;
4434;SDS011;46552;52.150;8.428;2023-08-24T10:24:58;13.23;;;9.60;;
4434;SDS011;46552;52.150;8.428;2023-08-24T10:27:26;15.87;;;10.90;;
4434;SDS011;46552;52.150;8.428;2023-08-24T10:29:53;11.40;;;9.00;;
4434;SDS011;46552;52.150;8.428;2023-08-24T10:32:21;12.40;;;7.57;;
4434;SDS011;46552;52.150;8.428;2023-08-24T10:34:49;9.67;;;6.20;;
4434;SDS011;46552;52.150;8.428;2023-08-24T10:37:24;7.30;;;5.57;;
4434;SDS011;46552;52.150;8.428;2023-08-24T10:39:52;7.27;;;4.70;;
4434;SDS011;46552;52.150;8.428;2023-08-24T10:42:19;10.63;;;6.07;;
4434;SDS011;46552;52.150;8.428;2023-08-24T10:44:47;16.80;;;9.10;;
4434;SDS011;46552;52.150;8.428;2023-08-24T10:47:15;12.97;;;7.30;;
4434;SDS011;46552;52.150;8.428;2023-08-24T10:49:45;8.47;;;5.63;;
4434;SDS011;46552;52.150;8.428;2023-08-24T10:52:30;11.70;;;5.13;;
4434;SDS011;46552;52.150;8.428;2023-08-24T10:55:00;9.50;;;6.40;;
4434;SDS011;46552;52.150;8.428;2023-08-24T10:57:34;12.37;;;6.60;;
4434;SDS011;46552;52.150;8.428;2023-08-24T11:00:04;8.47;;;6.63;;
4434;SDS011;46552;52.150;8.428;2023-08-24T11:02:45;13.87;;;7.50;;
4434;SDS011;46552;52.150;8.428;2023-08-24T11:05:17;15.17;;;6.17;;
4434;SDS011;46552;52.150;8.428;2023-08-24T11:07:50;7.13;;;5.17;;
4434;SDS011;46552;52.150;8.428;2023-08-24T11:10:18;13.33;;;7.13;;
4434;SDS011;46552;52.150;8.428;2023-08-24T11:15:33;13.67;;;6.50;;
4434;SDS011;46552;52.150;8.428;2023-08-24T11:18:14;7.50;;;4.70;;
4434;SDS011;46552;52.150;8.428;2023-08-24T11:20:50;6.60;;;4.47;;
4434;SDS011;46552;52.150;8.428;2023-08-24T11:23:21;12.33;;;4.20;;
4434;SDS011;46552;52.150;8.428;2023-08-24T11:25:49;11.33;;;5.20;;
4434;SDS011;46552;52.150;8.428;2023-08-24T11:28:20;15.43;;;6.03;;
4434;SDS011;46552;52.150;8.428;2023-08-24T11:30:49;15.67;;;6.20;;
4434;SDS011;46552;52.150;8.428;2023-08-24T11:33:17;18.00;;;6.60;;
4434;SDS011;46552;52.150;8.428;2023-08-24T11:35:54;9.97;;;5.17;;
4434;SDS011;46552;52.150;8.428;2023-08-24T11:38:23;10.00;;;5.53;;
4434;SDS011;46552;52.150;8.428;2023-08-24T11:40:50;10.00;;;5.37;;
4434;SDS011;46552;52.150;8.428;2023-08-24T11:43:23;10.90;;;6.30;;
4434;SDS011;46552;52.150;8.428;2023-08-24T11:45:53;12.53;;;5.73;;
4434;SDS011;46552;52.150;8.428;2023-08-24T11:48:23;10.33;;;5.80;;
4434;SDS011;46552;52.150;8.428;2023-08-24T11:50:51;8.60;;;4.90;;
4434;SDS011;46552;52.150;8.428;2023-08-24T11:53:19;12.23;;;5.70;;
4434;SDS011;46552;52.150;8.428;2023-08-24T11:55:52;9.47;;;5.40;;
4434;SDS011;46552;52.150;8.428;2023-08-24T11:58:19;8.60;;;5.53;;
4434;SDS011;46552;52.150;8.428;2023-08-24T12:00:47;6.43;;;4.37;;
4434;SDS011;46552;52.150;8.428;2023-08-24T12:03:15;9.43;;;5.00;;
4434;SDS011;46552;52.150;8.428;2023-08-24T12:05:43;10.43;;;4.60;;
4434;SDS011;46552;52.150;8.428;2023-08-24T12:08:12;7.13;;;4.37;;
4434;SDS011;46552;52.150;8.428;2023-08-24T12:10:43;8.43;;;4.77;;
4434;SDS011;46552;52.150;8.428;2023-08-24T12:13:12;7.43;;;3.67;;
4434;SDS011;46552;52.150;8.428;2023-08-24T12:15:40;5.80;;;3.50;;
4434;SDS011;46552;52.150;8.428;2023-08-24T12:18:08;9.37;;;4.43;;
4434;SDS011;46552;52.150;8.428;2023-08-24T12:20:36;7.33;;;3.87;;
4434;SDS011;46552;52.150;8.428;2023-08-24T12:23:03;9.07;;;4.70;;
4434;SDS011;46552;52.150;8.428;2023-08-24T12:25:35;10.40;;;4.40;;
4434;SDS011;46552;52.150;8.428;2023-08-24T12:28:09;11.13;;;4.40;;
4434;SDS011;46552;52.150;8.428;2023-08-24T12:30:47;7.17;;;4.13;;
4434;SDS011;46552;52.150;8.428;2023-08-24T12:33:22;10.93;;;4.20;;
4434;SDS011;46552;52.150;8.428;2023-08-24T12:35:51;6.90;;;4.13;;
4434;SDS011;46552;52.150;8.428;2023-08-24T12:38:20;7.40;;;3.97;;
4434;SDS011;46552;52.150;8.428;2023-08-24T12:40:47;8.30;;;4.00;;
4434;SDS011;46552;52.150;8.428;2023-08-24T12:43:15;22.80;;;5.00;;
4434;SDS011;46552;52.150;8.428;2023-08-24T12:45:42;14.53;;;4.83;;
4434;SDS011;46552;52.150;8.428;2023-08-24T12:48:11;6.20;;;3.80;;
4434;SDS011;46552;52.150;8.428;2023-08-24T12:50:38;6.80;;;4.13;;
4434;SDS011;46552;52.150;8.428;2023-08-24T12:53:06;6.87;;;4.17;;
4434;SDS011;46552;52.150;8.428;2023-08-24T12:55:33;9.33;;;4.13;;
4434;SDS011;46552;52.150;8.428;2023-08-24T12:58:02;7.93;;;3.73;;
4434;SDS011;46552;52.150;8.428;2023-08-24T13:00:30;6.50;;;4.47;;
4434;SDS011;46552;52.150;8.428;2023-08-24T13:02:57;6.70;;;3.90;;
4434;SDS011;46552;52.150;8.428;2023-08-24T13:05:26;8.50;;;4.30;;
4434;SDS011;46552;52.150;8.428;2023-08-24T13:07:53;7.57;;;3.53;;
4434;SDS011;46552;52.150;8.428;2023-08-24T13:10:21;9.40;;;4.57;;
4434;SDS011;46552;52.150;8.428;2023-08-24T13:12:50;7.77;;;4.37;;
4434;SDS011;46552;52.150;8.428;2023-08-24T13:15:17;6.90;;;4.17;;
4434;SDS011;46552;52.150;8.428;2023-08-24T13:17:45;7.50;;;4.17;;
4434;SDS011;46552;52.150;8.428;2023-08-24T13:20:12;5.40;;;4.40;;
4434;SDS011;46552;52.150;8.428;2023-08-24T13:22:41;6.97;;;5.10;;
4434;SDS011;46552;52.150;8.428;2023-08-24T13:25:08;7.23;;;4.60;;
4434;SDS011;46552;52.150;8.428;2023-08-24T13:27:36;10.30;;;4.40;;
4434;SDS011;46552;52.150;8.428;2023-08-24T13:30:04;7.30;;;4.30;;
4434;SDS011;46552;52.150;8.428;2023-08-24T13:32:32;8.63;;;4.77;;
4434;SDS011;46552;52.150;8.428;2023-08-24T13:35:00;8.90;;;4.50;;
4434;SDS011;46552;52.150;8.428;2023-08-24T13:37:28;8.40;;;4.77;;
4434;SDS011;46552;52.150;8.428;2023-08-24T13:39:57;7.10;;;3.77;;
4434;SDS011;46552;52.150;8.428;2023-08-24T13:42:24;8.40;;;4.53;;
4434;SDS011;46552;52.150;8.428;2023-08-24T13:44:51;7.43;;;5.20;;
4434;SDS011;46552;52.150;8.428;2023-08-24T13:47:19;7.70;;;5.07;;
4434;SDS011;46552;52.150;8.428;2023-08-24T13:49:47;10.20;;;4.23;;
4434;SDS011;46552;52.150;8.428;2023-08-24T13:52:15;11.10;;;3.67;;
4434;SDS011;46552;52.150;8.428;2023-08-24T13:54:44;6.53;;;4.10;;
4434;SDS011;46552;52.150;8.428;2023-08-24T13:57:14;7.60;;;3.77;;
4434;SDS011;46552;52.150;8.428;2023-08-24T13:59:41;6.13;;;3.97;;
4434;SDS011;46552;52.150;8.428;2023-08-24T14:02:08;11.90;;;4.30;;
4434;SDS011;46552;52.150;8.428;2023-08-24T14:04:36;7.80;;;3.90;;
4434;SDS011;46552;52.150;8.428;2023-08-24T14:07:03;8.80;;;3.30;;
4434;SDS011;46552;52.150;8.428;2023-08-24T14:09:31;13.17;;;3.77;;
4434;SDS011;46552;52.150;8.428;2023-08-24T14:11:59;11.10;;;4.33;;
4434;SDS011;46552;52.150;8.428;2023-08-24T14:14:27;6.97;;;3.83;;
4434;SDS011;46552;52.150;8.428;2023-08-24T14:16:54;8.20;;;3.97;;
4434;SDS011;46552;52.150;8.428;2023-08-24T14:19:23;7.47;;;4.07;;
4434;SDS011;46552;52.150;8.428;2023-08-24T14:21:58;19.30;;;4.27;;
4434;SDS011;46552;52.150;8.428;2023-08-24T14:24:25;9.80;;;3.60;;
4434;SDS011;46552;52.150;8.428;2023-08-24T14:26:52;6.43;;;3.47;;
4434;SDS011;46552;52.150;8.428;2023-08-24T14:29:20;7.13;;;4.57;;
4434;SDS011;46552;52.150;8.428;2023-08-24T14:31:48;11.37;;;4.63;;
4434;SDS011;46552;52.150;8.428;2023-08-24T14:34:16;7.00;;;4.53;;
4434;SDS011;46552;52.150;8.428;2023-08-24T14:36:43;11.67;;;3.87;;
4434;SDS011;46552;52.150;8.428;2023-08-24T14:39:10;8.50;;;5.67;;
4434;SDS011;46552;52.150;8.428;2023-08-24T14:41:37;11.57;;;5.40;;
4434;SDS011;46552;52.150;8.428;2023-08-24T14:44:04;10.07;;;4.73;;
4434;SDS011;46552;52.150;8.428;2023-08-24T14:46:31;8.40;;;5.07;;
4434;SDS011;46552;52.150;8.428;2023-08-24T14:49:00;7.97;;;4.73;;
4434;SDS011;46552;52.150;8.428;2023-08-24T14:51:28;12.93;;;3.53;;
4434;SDS011;46552;52.150;8.428;2023-08-24T14:53:55;8.83;;;4.10;;
4434;SDS011;46552;52.150;8.428;2023-08-24T14:56:22;16.90;;;4.87;;